This is the latest recevied weather packets stored in our database for station/object WX2P-13. If no packets are shown the sender has not sent any weather packets the latest 10 day(s).
| Time | Temp. | Humidity | Pressure | Rain* | Wind** | Luminosity | Snow |
|---|---|---|---|---|---|---|---|
| 1777906637 | 26.11° C | 54% | 1018.4 hPa | 0 mm | - | 796 W/m² | - |
| 1777905726 | 25° C | 55% | 1018.1 hPa | 0 mm | - | 799 W/m² | - |
| 1777905423 | 25.56° C | 57% | 1018.3 hPa | 0 mm | - | 766 W/m² | - |
| 1777905121 | 25° C | 57% | 1018.4 hPa | 0 mm | - | 777 W/m² | - |
| 1777904515 | 25° C | 57% | 1018.7 hPa | 0 mm | - | 688 W/m² | - |
| 1777903908 | 25° C | 60% | 1018.4 hPa | 0 mm | - | 676 W/m² | - |
| 1777903605 | 25° C | 61% | 1018.4 hPa | 0 mm | - | 650 W/m² | - |
| 1777902998 | 23.89° C | 62% | 1018.5 hPa | 0 mm | - | 623 W/m² | - |
| 1777902088 | 23.89° C | 66% | 1018.6 hPa | 0 mm | - | 496 W/m² | - |
| 1777901787 | 23.33° C | 67% | 1018.5 hPa | 0 mm | - | 512 W/m² | - |
| 1777901181 | 23.33° C | 67% | 1018.3 hPa | 0 mm | - | 393 W/m² | - |
| 1777900879 | 23.33° C | 68% | 1018.1 hPa | 0 mm | - | 370 W/m² | - |
| 1777900576 | 23.33° C | 69% | 1018 hPa | 0 mm | - | 363 W/m² | - |
| 1777899666 | 22.22° C | 73% | 1017.9 hPa | 0 mm | - | 286 W/m² | - |
| 1777898153 | 20° C | 80% | 1018.1 hPa | 0 mm | - | 199 W/m² | - |
| 1777897850 | 19.44° C | 80% | 1018.2 hPa | 0 mm | - | 173 W/m² | - |
| 1777897546 | 18.89° C | 83% | 1018 hPa | 0 mm | - | 164 W/m² | - |
| 1777897242 | 18.33° C | 86% | 1018 hPa | 0 mm | - | 141 W/m² | - |
| 1777896938 | 16.67° C | 90% | 1018.1 hPa | 0 mm | - | 123 W/m² | - |
| 1777896635 | 16.67° C | 92% | 1017.9 hPa | 0 mm | - | 33 W/m² | - |
| 1777896332 | 16.11° C | 93% | 1017.9 hPa | 0 mm | - | 32 W/m² | - |
| 1777896030 | 16.11° C | 95% | 1017.7 hPa | 0 mm | - | 30 W/m² | - |
| 1777895728 | 15.56° C | 95% | 1017.7 hPa | 0 mm | - | 41 W/m² | - |
| 1777895425 | 15.56° C | 96% | 1018 hPa | 0 mm | - | 26 W/m² | - |
| 1777894820 | 15° C | 97% | 1017.6 hPa | 0 mm | - | 31 W/m² | - |
* Rain latest hour (hover to see other rain measurements)
** Current wind speed in m/s (hover to see current wind gust speed)